Time;durP1;ratioP1;P1;durP2;ratioP2;P2;SDS_P1;SDS_P2;PMS_P1;PMS_P2;Temp;Humidity;BMP_temperature;BMP_pressure;BME280_temperature;BME280_humidity;BME280_pressure;Samples;Min_cycle;Max_cycle;Signal;HPM_P1;HPM_P2
2022/10/09 00:01:25;;;;;;;;;;;19.00;93.80;;;;;;5012826;28;19952;-25
2022/10/09 00:03:52;;;;;;;;;;;19.10;93.80;;;;;;5012527;28;19951;-25
2022/10/09 00:06:19;;;;;;;;;;;19.00;93.80;;;;;;5012718;28;19909;-26
2022/10/09 00:08:44;;;;;;;;;;;19.10;93.80;;;;;;5012692;28;20039;-25
2022/10/09 00:11:15;;;;;;;;;;;19.00;93.70;;;;;;5012613;28;20000;-25
2022/10/09 00:13:41;;;;;;;;;;;19.00;93.70;;;;;;5012025;28;20359;-27
2022/10/09 00:16:07;;;;;;;;;;;19.00;93.70;;;;;;5012663;28;19905;-26
2022/10/09 00:18:33;;;;;;;;;;;19.00;93.70;;;;;;5012334;28;19913;-26
2022/10/09 00:20:59;;;;;;;;;;;19.00;93.60;;;;;;5012610;28;20003;-27
2022/10/09 00:23:24;;;;;;;;;;;19.00;93.60;;;;;;5011381;28;19957;-27
2022/10/09 00:25:51;;;;;;;;;;;19.00;93.60;;;;;;5012341;28;20015;-26
2022/10/09 00:28:17;;;;;;;;;;;19.00;93.60;;;;;;5012361;28;19916;-27
2022/10/09 00:30:42;;;;;;;;;;;19.00;93.90;;;;;;5012369;28;19944;-25
2022/10/09 00:33:08;;;;;;;;;;;19.00;93.60;;;;;;5012101;28;19909;-26
2022/10/09 00:35:36;;;;;;;;;;;19.00;93.60;;;;;;5012209;28;19906;-25
2022/10/09 00:38:02;;;;;;;;;;;19.00;93.90;;;;;;5012260;28;19905;-27
2022/10/09 00:40:27;;;;;;;;;;;19.00;93.60;;;;;;5012263;28;20000;-26
2022/10/09 00:42:56;;;;;;;;;;;19.00;93.50;;;;;;5011825;28;20429;-26
2022/10/09 00:45:22;;;;;;;;;;;18.90;93.50;;;;;;5012084;28;20425;-25
2022/10/09 00:47:52;;;;;;;;;;;18.90;93.50;;;;;;5011984;28;19913;-27
2022/10/09 00:50:23;;;;;;;;;;;18.90;93.40;;;;;;5012124;28;20355;-27
2022/10/09 00:52:51;;;;;;;;;;;18.90;93.40;;;;;;5011950;28;19932;-26
2022/10/09 00:55:17;;;;;;;;;;;18.90;93.40;;;;;;5011893;28;19955;-26
2022/10/09 00:57:43;;;;;;;;;;;18.90;93.40;;;;;;5012036;28;19905;-26
2022/10/09 01:00:09;;;;;;;;;;;18.90;93.40;;;;;;5012179;28;20282;-27
2022/10/09 01:02:35;;;;;;;;;;;18.90;93.30;;;;;;5011757;28;19905;-25
2022/10/09 01:05:01;;;;;;;;;;;18.90;93.30;;;;;;5012331;28;19913;-26
2022/10/09 01:07:38;;;;;;;;;;;18.90;93.30;;;;;;5012377;28;19909;-27
2022/10/09 01:10:14;;;;;;;;;;;18.80;93.30;;;;;;5012017;28;19921;-25
2022/10/09 01:12:46;;;;;;;;;;;18.90;93.30;;;;;;5011987;28;20278;-26
2022/10/09 01:15:22;;;;;;;;;;;18.90;93.20;;;;;;5035717;22;20311;-24
2022/10/09 01:17:48;;;;;;;;;;;18.80;93.20;;;;;;5011710;28;19909;-23
2022/10/09 01:20:23;;;;;;;;;;;18.80;93.10;;;;;;5013718;28;19913;-24
2022/10/09 01:22:58;;;;;;;;;;;18.80;93.10;;;;;;5012076;28;19906;-23
2022/10/09 01:25:42;;;;;;;;;;;18.80;93.10;;;;;;5011823;28;19905;-23
2022/10/09 01:28:09;;;;;;;;;;;18.80;93.10;;;;;;5012264;28;20357;-23
2022/10/09 01:30:35;;;;;;;;;;;18.80;93.10;;;;;;5011716;28;19905;-23
2022/10/09 01:33:02;;;;;;;;;;;18.80;93.10;;;;;;5011794;28;20259;-23
2022/10/09 01:35:28;;;;;;;;;;;18.80;93.10;;;;;;5015191;28;19905;-23
2022/10/09 01:37:54;;;;;;;;;;;18.80;93.10;;;;;;5015489;28;20365;-23
2022/10/09 01:40:20;;;;;;;;;;;18.80;93.10;;;;;;5014258;28;19917;-24
2022/10/09 01:42:46;;;;;;;;;;;18.80;93.10;;;;;;5015307;28;19905;-23
2022/10/09 01:45:12;;;;;;;;;;;18.80;93.00;;;;;;5015251;28;19905;-24
2022/10/09 01:47:38;;;;;;;;;;;18.70;93.00;;;;;;5013879;28;20376;-24
2022/10/09 01:50:06;;;;;;;;;;;18.70;93.00;;;;;;5015278;28;19905;-24
2022/10/09 01:52:32;;;;;;;;;;;18.70;93.00;;;;;;5015085;28;19910;-24
2022/10/09 01:54:58;;;;;;;;;;;18.70;93.00;;;;;;5015179;28;20017;-24
2022/10/09 01:57:31;;;;;;;;;;;18.70;92.90;;;;;;5015150;28;19906;-24
2022/10/09 01:59:57;;;;;;;;;;;18.70;92.90;;;;;;5015066;28;20290;-24
2022/10/09 02:02:24;;;;;;;;;;;18.70;92.90;;;;;;5014952;28;19912;-24
2022/10/09 02:04:50;;;;;;;;;;;18.70;92.90;;;;;;5015010;28;19913;-24
2022/10/09 02:07:16;;;;;;;;;;;18.70;92.80;;;;;;5014930;28;19913;-24
2022/10/09 02:09:42;;;;;;;;;;;18.70;92.80;;;;;;5015145;28;20031;-24
2022/10/09 02:12:08;;;;;;;;;;;18.70;92.80;;;;;;5014791;28;20366;-24
2022/10/09 02:14:34;;;;;;;;;;;18.70;92.80;;;;;;5022430;28;20374;-24
2022/10/09 02:17:05;;;;;;;;;;;18.60;92.70;;;;;;5025804;28;19913;-24
2022/10/09 02:19:33;;;;;;;;;;;18.70;92.80;;;;;;5022037;28;19905;-24
2022/10/09 02:22:06;;;;;;;;;;;18.70;92.80;;;;;;5015344;28;19997;-24
2022/10/09 02:24:31;;;;;;;;;;;18.60;92.70;;;;;;5015023;28;20329;-24
2022/10/09 02:26:58;;;;;;;;;;;18.70;92.60;;;;;;5015527;28;19913;-24
2022/10/09 02:29:23;;;;;;;;;;;18.60;92.70;;;;;;5015047;28;19948;-24
2022/10/09 02:31:49;;;;;;;;;;;18.60;92.70;;;;;;5013803;28;19941;-24
2022/10/09 02:34:21;;;;;;;;;;;18.60;92.70;;;;;;5014511;28;19909;-24
2022/10/09 02:36:48;;;;;;;;;;;18.60;92.60;;;;;;5015244;28;19916;-24
2022/10/09 02:39:14;;;;;;;;;;;18.60;92.60;;;;;;5014783;28;20282;-24
2022/10/09 02:41:39;;;;;;;;;;;18.60;92.60;;;;;;5014631;28;20378;-23
2022/10/09 02:44:05;;;;;;;;;;;18.50;92.70;;;;;;5014321;28;20346;-24
2022/10/09 02:46:31;;;;;;;;;;;18.60;92.60;;;;;;5013698;28;19913;-24
2022/10/09 02:48:57;;;;;;;;;;;18.60;92.60;;;;;;5014501;28;19996;-24
2022/10/09 02:51:22;;;;;;;;;;;18.60;92.60;;;;;;5014219;28;20460;-24
2022/10/09 02:53:50;;;;;;;;;;;18.50;92.60;;;;;;5013791;28;19910;-24
2022/10/09 02:56:15;;;;;;;;;;;18.50;92.50;;;;;;5013954;28;19909;-24
2022/10/09 02:58:41;;;;;;;;;;;18.50;92.50;;;;;;5014366;28;19964;-24
2022/10/09 03:01:06;;;;;;;;;;;18.50;92.60;;;;;;5013964;28;19912;-24
2022/10/09 03:03:32;;;;;;;;;;;18.50;92.60;;;;;;5013771;28;20019;-24
2022/10/09 03:05:58;;;;;;;;;;;18.50;92.60;;;;;;5012367;28;19906;-24
2022/10/09 03:08:26;;;;;;;;;;;18.50;92.50;;;;;;5013673;28;20297;-24
2022/10/09 03:10:52;;;;;;;;;;;18.50;92.50;;;;;;5013790;28;19913;-24
2022/10/09 03:13:17;;;;;;;;;;;18.40;92.50;;;;;;5013725;28;19906;-24
2022/10/09 03:15:43;;;;;;;;;;;18.50;92.50;;;;;;5013839;28;19967;-24
2022/10/09 03:18:08;;;;;;;;;;;18.50;92.50;;;;;;5014094;28;19975;-24
2022/10/09 03:20:34;;;;;;;;;;;18.40;92.50;;;;;;5013817;28;19915;-24
2022/10/09 03:22:59;;;;;;;;;;;18.40;92.50;;;;;;5013245;28;19920;-24
2022/10/09 03:25:25;;;;;;;;;;;18.40;92.30;;;;;;5013430;28;20036;-24
2022/10/09 03:27:50;;;;;;;;;;;18.40;92.40;;;;;;5013371;28;19920;-24
2022/10/09 03:30:19;;;;;;;;;;;18.40;92.40;;;;;;5013579;28;19959;-24
2022/10/09 03:32:44;;;;;;;;;;;18.40;92.30;;;;;;5013176;28;19941;-24
2022/10/09 03:35:10;;;;;;;;;;;18.40;92.30;;;;;;5013286;28;19945;-24
2022/10/09 03:37:35;;;;;;;;;;;18.40;92.40;;;;;;5013217;28;19956;-24
2022/10/09 03:40:01;;;;;;;;;;;18.40;92.40;;;;;;5013218;28;20322;-24
2022/10/09 03:42:26;;;;;;;;;;;18.40;92.40;;;;;;5013025;28;20372;-24
2022/10/09 03:44:52;;;;;;;;;;;18.30;92.30;;;;;;5013057;28;19909;-24
2022/10/09 03:47:17;;;;;;;;;;;18.30;92.30;;;;;;5013078;28;19975;-24
2022/10/09 03:49:43;;;;;;;;;;;18.30;92.30;;;;;;5013124;28;19905;-24
2022/10/09 03:52:08;;;;;;;;;;;18.30;92.30;;;;;;5012897;28;19966;-24
2022/10/09 03:54:34;;;;;;;;;;;18.30;92.20;;;;;;5012760;28;19905;-24
2022/10/09 03:56:59;;;;;;;;;;;18.30;92.20;;;;;;5012773;28;19905;-24
2022/10/09 03:59:25;;;;;;;;;;;18.30;92.30;;;;;;5013002;28;19905;-24
2022/10/09 04:01:51;;;;;;;;;;;18.30;92.20;;;;;;5012886;28;19909;-24
2022/10/09 04:04:16;;;;;;;;;;;18.30;92.20;;;;;;5012611;28;19911;-24
2022/10/09 04:06:42;;;;;;;;;;;18.30;92.30;;;;;;5012720;28;19940;-24
2022/10/09 04:09:08;;;;;;;;;;;18.30;92.30;;;;;;5013134;28;19996;-24
2022/10/09 04:11:33;;;;;;;;;;;18.20;92.10;;;;;;5012688;28;19953;-24
2022/10/09 04:13:59;;;;;;;;;;;18.20;92.10;;;;;;5012432;28;19905;-24
2022/10/09 04:16:25;;;;;;;;;;;18.30;92.20;;;;;;5012663;28;19909;-24
2022/10/09 04:18:50;;;;;;;;;;;18.30;92.10;;;;;;5012618;28;19916;-24
2022/10/09 04:21:19;;;;;;;;;;;18.20;92.20;;;;;;5012467;28;20325;-24
2022/10/09 04:23:44;;;;;;;;;;;18.20;92.10;;;;;;5012190;28;20260;-23
2022/10/09 04:26:11;;;;;;;;;;;18.20;92.10;;;;;;5012405;28;19916;-24
2022/10/09 04:28:36;;;;;;;;;;;18.20;92.10;;;;;;5012364;28;19988;-23
2022/10/09 04:31:02;;;;;;;;;;;18.20;92.00;;;;;;5012456;28;19992;-24
2022/10/09 04:33:27;;;;;;;;;;;18.20;92.10;;;;;;5012212;28;19905;-24
2022/10/09 04:35:54;;;;;;;;;;;18.20;92.10;;;;;;5012140;28;19913;-23
2022/10/09 04:38:20;;;;;;;;;;;18.20;92.10;;;;;;5012244;28;19955;-23
2022/10/09 04:40:55;;;;;;;;;;;18.20;92.00;;;;;;5012301;28;19968;-23
2022/10/09 04:43:21;;;;;;;;;;;18.20;92.00;;;;;;5012903;28;19909;-23
2022/10/09 04:45:46;;;;;;;;;;;18.20;92.00;;;;;;5012091;28;19905;-24
2022/10/09 04:48:12;;;;;;;;;;;18.10;92.00;;;;;;5012171;28;19906;-23
2022/10/09 04:50:37;;;;;;;;;;;18.10;91.90;;;;;;5012118;28;19906;-24
2022/10/09 04:53:03;;;;;;;;;;;18.10;91.90;;;;;;5011948;28;19905;-23
2022/10/09 04:55:28;;;;;;;;;;;18.10;91.90;;;;;;5010760;28;20260;-23
2022/10/09 04:57:54;;;;;;;;;;;18.10;91.90;;;;;;5012100;28;19913;-24
2022/10/09 05:00:19;;;;;;;;;;;18.10;91.90;;;;;;5012095;28;19912;-23
2022/10/09 05:02:45;;;;;;;;;;;18.10;91.80;;;;;;5011851;28;19909;-24
2022/10/09 05:05:10;;;;;;;;;;;18.10;91.90;;;;;;5011882;28;19914;-23
2022/10/09 05:07:37;;;;;;;;;;;18.10;91.90;;;;;;5012116;28;20008;-23
2022/10/09 05:10:03;;;;;;;;;;;18.00;91.80;;;;;;5014873;28;19905;-23
2022/10/09 05:12:28;;;;;;;;;;;18.00;91.80;;;;;;5015783;28;19906;-23
2022/10/09 05:14:54;;;;;;;;;;;18.00;91.80;;;;;;5015834;28;19979;-24
2022/10/09 05:17:19;;;;;;;;;;;18.00;91.80;;;;;;5014556;28;19905;-23
2022/10/09 05:19:45;;;;;;;;;;;18.00;91.80;;;;;;5015787;28;19955;-23
2022/10/09 05:22:10;;;;;;;;;;;18.00;91.70;;;;;;5015833;28;19909;-23
2022/10/09 05:24:36;;;;;;;;;;;18.00;92.10;;;;;;5015566;28;20353;-23
2022/10/09 05:27:01;;;;;;;;;;;18.00;91.80;;;;;;5015652;28;19920;-24
2022/10/09 05:29:27;;;;;;;;;;;18.00;91.80;;;;;;5015797;28;19910;-23
2022/10/09 05:31:52;;;;;;;;;;;18.00;91.80;;;;;;5015698;28;19905;-23
2022/10/09 05:34:18;;;;;;;;;;;18.00;91.70;;;;;;5015273;28;19921;-24
2022/10/09 05:36:43;;;;;;;;;;;18.00;92.00;;;;;;5015604;28;20278;-23
2022/10/09 05:39:09;;;;;;;;;;;18.00;91.80;;;;;;5014122;28;19927;-24
2022/10/09 05:41:35;;;;;;;;;;;18.00;91.70;;;;;;5015442;28;19912;-23
2022/10/09 05:44:01;;;;;;;;;;;18.00;91.70;;;;;;5015231;28;20386;-23
2022/10/09 05:46:28;;;;;;;;;;;17.90;91.60;;;;;;5015389;28;19909;-23
2022/10/09 05:49:04;;;;;;;;;;;17.90;91.60;;;;;;5015276;28;19959;-24
2022/10/09 05:51:31;;;;;;;;;;;17.90;91.70;;;;;;5015386;28;19905;-23
2022/10/09 05:53:57;;;;;;;;;;;17.90;91.60;;;;;;5014986;28;19906;-24
2022/10/09 05:56:23;;;;;;;;;;;17.90;91.60;;;;;;5015234;28;19914;-23
2022/10/09 05:59:13;;;;;;;;;;;17.90;91.60;;;;;;5015250;28;19909;-23
2022/10/09 06:01:43;;;;;;;;;;;17.90;91.70;;;;;;5012193;28;19915;-23
2022/10/09 06:04:12;;;;;;;;;;;17.90;91.60;;;;;;5015073;28;19947;-23
2022/10/09 06:06:39;;;;;;;;;;;17.80;91.60;;;;;;5015191;28;19909;-23
2022/10/09 06:09:05;;;;;;;;;;;17.80;91.60;;;;;;4997821;28;19952;-24
2022/10/09 06:11:31;;;;;;;;;;;17.80;91.60;;;;;;5015020;28;19928;-23
2022/10/09 06:13:58;;;;;;;;;;;17.80;91.60;;;;;;5014479;28;19905;-24
2022/10/09 06:16:24;;;;;;;;;;;17.80;91.60;;;;;;5015285;28;20259;-23
2022/10/09 06:18:51;;;;;;;;;;;17.80;91.60;;;;;;5015084;28;19910;-23
2022/10/09 06:21:16;;;;;;;;;;;17.80;91.60;;;;;;5013694;28;20363;-24
2022/10/09 06:23:42;;;;;;;;;;;17.80;91.60;;;;;;5015070;28;19909;-24
2022/10/09 06:26:09;;;;;;;;;;;17.80;91.60;;;;;;5014843;28;20313;-24
2022/10/09 06:28:35;;;;;;;;;;;17.80;91.60;;;;;;5015438;28;20313;-24
2022/10/09 06:31:00;;;;;;;;;;;17.80;91.60;;;;;;5016028;28;20243;-24
2022/10/09 06:33:28;;;;;;;;;;;17.80;91.60;;;;;;5014799;28;19905;-24
2022/10/09 06:35:53;;;;;;;;;;;17.80;91.60;;;;;;5014597;28;20425;-24
2022/10/09 06:38:18;;;;;;;;;;;17.80;91.70;;;;;;5014560;28;19937;-24
2022/10/09 06:40:44;;;;;;;;;;;17.80;91.60;;;;;;5014535;28;19912;-24
2022/10/09 06:43:10;;;;;;;;;;;17.80;91.80;;;;;;5014246;28;20374;-24
2022/10/09 06:45:36;;;;;;;;;;;17.80;91.70;;;;;;5014475;28;19967;-24
2022/10/09 06:48:02;;;;;;;;;;;17.80;91.70;;;;;;5014437;28;19924;-24
2022/10/09 06:50:27;;;;;;;;;;;17.80;91.70;;;;;;5014718;28;19905;-24
2022/10/09 06:52:53;;;;;;;;;;;17.80;91.60;;;;;;5014664;28;19928;-24
2022/10/09 06:55:18;;;;;;;;;;;17.90;91.60;;;;;;5013179;28;19912;-24
2022/10/09 06:57:44;;;;;;;;;;;17.90;91.80;;;;;;5014868;28;19905;-24
2022/10/09 07:00:12;;;;;;;;;;;17.90;91.60;;;;;;5014970;28;20380;-24
2022/10/09 07:02:37;;;;;;;;;;;17.90;91.60;;;;;;5014654;28;20035;-24
2022/10/09 07:05:03;;;;;;;;;;;17.90;91.60;;;;;;5014291;28;20012;-24
2022/10/09 07:07:28;;;;;;;;;;;17.90;91.60;;;;;;5014301;28;19909;-24
2022/10/09 07:09:54;;;;;;;;;;;17.90;91.60;;;;;;5014335;28;20358;-24
2022/10/09 07:12:19;;;;;;;;;;;17.90;91.60;;;;;;5013840;28;19905;-24
2022/10/09 07:14:45;;;;;;;;;;;17.90;91.60;;;;;;5026038;22;19983;-25
2022/10/09 07:17:10;;;;;;;;;;;18.00;91.60;;;;;;5013371;28;20358;-26
2022/10/09 07:19:36;;;;;;;;;;;17.90;91.60;;;;;;5013562;28;19949;-25
2022/10/09 07:22:01;;;;;;;;;;;18.00;91.60;;;;;;5013778;28;19912;-27
2022/10/09 07:24:27;;;;;;;;;;;18.00;91.60;;;;;;5013319;28;20274;-26
2022/10/09 07:26:56;;;;;;;;;;;18.00;91.60;;;;;;5014009;28;19917;-26
2022/10/09 07:29:22;;;;;;;;;;;18.00;91.60;;;;;;5013511;28;19945;-26
2022/10/09 07:31:48;;;;;;;;;;;18.00;91.70;;;;;;5013054;28;20473;-26
2022/10/09 07:34:17;;;;;;;;;;;18.10;91.70;;;;;;5013138;28;20394;-26
2022/10/09 07:36:42;;;;;;;;;;;18.10;91.70;;;;;;5013497;28;19941;-26
2022/10/09 07:39:08;;;;;;;;;;;18.10;91.60;;;;;;5013304;28;19940;-27
2022/10/09 07:41:33;;;;;;;;;;;18.20;91.60;;;;;;5013209;28;20282;-26
2022/10/09 07:43:59;;;;;;;;;;;18.20;91.60;;;;;;5012968;28;20004;-27
2022/10/09 07:46:26;;;;;;;;;;;18.20;91.50;;;;;;5013073;28;19953;-27
2022/10/09 07:48:51;;;;;;;;;;;18.20;91.50;;;;;;5013137;28;19909;-27
2022/10/09 07:51:18;;;;;;;;;;;18.20;91.50;;;;;;5013275;28;20376;-26
2022/10/09 07:53:44;;;;;;;;;;;18.20;91.50;;;;;;5012937;28;20366;-27
2022/10/09 07:56:16;;;;;;;;;;;18.30;91.50;;;;;;5012893;28;19947;-25
2022/10/09 07:58:42;;;;;;;;;;;18.30;91.40;;;;;;5012941;28;19984;-26
2022/10/09 08:01:07;;;;;;;;;;;18.30;91.40;;;;;;5013077;28;20370;-27
2022/10/09 08:03:34;;;;;;;;;;;18.30;91.30;;;;;;5012805;28;20363;-27
2022/10/09 08:06:02;;;;;;;;;;;18.40;91.40;;;;;;5012790;28;19916;-27
2022/10/09 08:08:27;;;;;;;;;;;18.40;91.40;;;;;;5012770;28;19905;-27
2022/10/09 08:10:53;;;;;;;;;;;18.40;91.30;;;;;;5011524;28;19975;-27
2022/10/09 08:13:18;;;;;;;;;;;18.40;91.30;;;;;;5012571;28;20381;-26
2022/10/09 08:15:44;;;;;;;;;;;18.50;91.30;;;;;;5012515;28;20362;-25
2022/10/09 08:18:10;;;;;;;;;;;18.40;91.40;;;;;;5012665;28;19905;-26
2022/10/09 08:20:36;;;;;;;;;;;18.40;91.40;;;;;;5012543;28;20003;-26
2022/10/09 08:23:01;;;;;;;;;;;18.50;91.40;;;;;;5012263;28;19987;-26
2022/10/09 08:25:27;;;;;;;;;;;18.50;91.40;;;;;;5012420;28;19917;-26
2022/10/09 08:27:52;;;;;;;;;;;18.50;91.40;;;;;;5012379;28;19909;-26
2022/10/09 08:30:18;;;;;;;;;;;18.50;91.40;;;;;;5012372;28;19909;-26
2022/10/09 08:32:43;;;;;;;;;;;18.50;91.40;;;;;;5012194;28;19911;-26
2022/10/09 08:35:09;;;;;;;;;;;18.50;91.40;;;;;;5012337;28;20290;-28
2022/10/09 08:37:35;;;;;;;;;;;18.60;91.50;;;;;;5012266;28;19905;-27
2022/10/09 08:40:00;;;;;;;;;;;18.60;91.50;;;;;;5012254;28;19916;-27
2022/10/09 08:42:30;;;;;;;;;;;18.60;91.50;;;;;;5010754;28;19963;-25
2022/10/09 08:44:55;;;;;;;;;;;18.60;91.50;;;;;;5011367;28;19906;-27
2022/10/09 08:47:23;;;;;;;;;;;18.60;91.40;;;;;;5012107;28;19916;-25
2022/10/09 08:49:53;;;;;;;;;;;18.60;91.50;;;;;;5012507;28;19955;-24
2022/10/09 08:52:31;;;;;;;;;;;18.60;91.40;;;;;;5012571;28;19995;-24
2022/10/09 08:54:58;;;;;;;;;;;18.60;91.40;;;;;;5012255;28;19916;-25
2022/10/09 08:57:25;;;;;;;;;;;18.70;91.40;;;;;;5012532;28;20437;-24
2022/10/09 08:59:51;;;;;;;;;;;18.70;91.40;;;;;;5012561;28;19912;-24
2022/10/09 09:02:31;;;;;;;;;;;18.70;91.40;;;;;;5012298;28;19906;-26
2022/10/09 09:04:57;;;;;;;;;;;18.70;91.40;;;;;;5011926;28;20377;-23
2022/10/09 09:07:31;;;;;;;;;;;18.80;91.40;;;;;;5013316;28;19910;-23
2022/10/09 09:10:00;;;;;;;;;;;18.80;91.40;;;;;;5013003;28;20325;-24
2022/10/09 09:12:28;;;;;;;;;;;18.80;91.40;;;;;;5013130;28;19993;-23
2022/10/09 09:15:00;;;;;;;;;;;18.80;91.40;;;;;;5012861;28;20343;-23
2022/10/09 09:17:28;;;;;;;;;;;18.80;91.40;;;;;;5013011;28;19952;-25
2022/10/09 09:20:03;;;;;;;;;;;18.80;91.30;;;;;;5012885;28;19909;-26
2022/10/09 09:22:29;;;;;;;;;;;18.90;91.30;;;;;;5011901;28;19905;-24
2022/10/09 09:24:56;;;;;;;;;;;18.90;91.30;;;;;;5012137;28;20714;-24
2022/10/09 09:27:26;;;;;;;;;;;18.90;91.30;;;;;;5011906;28;20293;-24
2022/10/09 09:30:00;;;;;;;;;;;18.90;91.20;;;;;;5011887;28;19905;-26
2022/10/09 09:32:27;;;;;;;;;;;18.90;91.20;;;;;;5011853;28;20286;-27
2022/10/09 09:34:57;;;;;;;;;;;19.00;91.30;;;;;;5011945;28;19912;-24
2022/10/09 09:37:23;;;;;;;;;;;19.00;91.20;;;;;;5012049;28;19928;-26
2022/10/09 09:39:48;;;;;;;;;;;19.00;91.20;;;;;;5011893;28;20367;-24
2022/10/09 09:42:18;;;;;;;;;;;19.10;91.20;;;;;;5011854;28;19905;-24
2022/10/09 09:44:56;;;;;;;;;;;19.00;91.20;;;;;;5011804;28;20426;-27
2022/10/09 09:47:48;;;;;;;;;;;19.00;91.20;;;;;;5012232;28;19956;-24
2022/10/09 09:50:14;;;;;;;;;;;19.10;91.20;;;;;;5011007;28;19905;-23
2022/10/09 09:52:42;;;;;;;;;;;19.10;91.10;;;;;;5010385;28;19916;-26
2022/10/09 09:55:21;;;;;;;;;;;19.10;91.10;;;;;;5013060;28;19913;-23
2022/10/09 09:57:47;;;;;;;;;;;19.10;91.10;;;;;;5015484;28;20309;-25
2022/10/09 10:00:18;;;;;;;;;;;19.10;91.00;;;;;;5016094;28;20279;-23
2022/10/09 10:02:43;;;;;;;;;;;19.20;91.40;;;;;;5015960;28;20297;-25
2022/10/09 10:05:19;;;;;;;;;;;19.20;91.00;;;;;;5015389;28;20005;-25
2022/10/09 10:07:48;;;;;;;;;;;19.30;91.00;;;;;;5015633;28;19932;-24
2022/10/09 10:10:21;;;;;;;;;;;19.30;91.00;;;;;;5015987;28;19913;-24
2022/10/09 10:12:50;;;;;;;;;;;19.30;90.90;;;;;;5015996;28;19905;-25
2022/10/09 10:15:18;;;;;;;;;;;19.30;90.90;;;;;;5015247;28;20389;-23
2022/10/09 10:17:45;;;;;;;;;;;19.30;90.90;;;;;;5015320;28;19997;-25
2022/10/09 10:20:14;;;;;;;;;;;19.30;90.90;;;;;;5015182;28;19906;-25
2022/10/09 10:22:39;;;;;;;;;;;19.40;90.80;;;;;;5014890;28;19979;-24
2022/10/09 10:25:11;;;;;;;;;;;19.40;90.90;;;;;;5015690;28;20350;-24
2022/10/09 10:27:41;;;;;;;;;;;19.40;90.80;;;;;;5015862;28;19948;-24
2022/10/09 10:30:12;;;;;;;;;;;19.40;90.80;;;;;;5015531;28;19911;-26
2022/10/09 10:32:37;;;;;;;;;;;19.40;90.80;;;;;;5015876;28;19909;-24
2022/10/09 10:35:05;;;;;;;;;;;19.40;90.80;;;;;;5015514;28;20247;-24
2022/10/09 10:37:44;;;;;;;;;;;19.40;90.80;;;;;;5015865;28;19905;-24
2022/10/09 10:40:32;;;;;;;;;;;19.40;90.70;;;;;;5015040;28;19913;-24
2022/10/09 10:43:05;;;;;;;;;;;19.50;90.70;;;;;;5015146;28;19905;-24
2022/10/09 10:45:30;;;;;;;;;;;19.50;90.70;;;;;;5014369;28;19983;-26
2022/10/09 10:47:57;;;;;;;;;;;19.50;90.70;;;;;;5014364;28;20358;-26
2022/10/09 10:50:26;;;;;;;;;;;19.50;90.80;;;;;;5015191;28;19959;-24
2022/10/09 10:53:05;;;;;;;;;;;19.50;90.70;;;;;;5015189;28;20355;-24
2022/10/09 10:55:30;;;;;;;;;;;19.50;90.70;;;;;;5015091;28;20371;-24
2022/10/09 10:58:05;;;;;;;;;;;19.60;90.80;;;;;;5014558;28;19949;-26
2022/10/09 11:00:33;;;;;;;;;;;19.60;90.70;;;;;;5014460;28;20258;-26
2022/10/09 11:03:04;;;;;;;;;;;19.60;90.70;;;;;;5014025;28;19928;-26
2022/10/09 11:05:35;;;;;;;;;;;19.60;90.70;;;;;;5014022;28;19916;-27
2022/10/09 11:08:12;;;;;;;;;;;19.60;90.70;;;;;;5013173;28;19913;-26
2022/10/09 11:10:50;;;;;;;;;;;19.60;90.70;;;;;;5014231;28;19955;-26
2022/10/09 11:13:21;;;;;;;;;;;19.60;90.70;;;;;;5013911;28;19905;-26
2022/10/09 11:15:53;;;;;;;;;;;19.60;90.70;;;;;;5013904;28;19913;-26
2022/10/09 11:18:37;;;;;;;;;;;19.70;90.70;;;;;;5013898;28;20022;-26
2022/10/09 11:21:21;;;;;;;;;;;19.60;90.70;;;;;;5013972;28;19905;-26
2022/10/09 11:23:52;;;;;;;;;;;19.60;90.70;;;;;;5013803;28;20339;-26
2022/10/09 11:26:36;;;;;;;;;;;19.70;90.80;;;;;;5013657;28;19912;-26
2022/10/09 11:29:05;;;;;;;;;;;19.70;90.70;;;;;;5014090;28;19940;-25
2022/10/09 11:31:37;;;;;;;;;;;19.70;90.70;;;;;;5014024;28;19906;-26
2022/10/09 11:34:11;;;;;;;;;;;19.70;90.70;;;;;;5013469;28;19909;-25
2022/10/09 11:36:40;;;;;;;;;;;19.70;90.70;;;;;;5013718;28;19905;-26
2022/10/09 11:39:14;;;;;;;;;;;19.70;90.60;;;;;;5013585;28;19906;-26
2022/10/09 11:41:39;;;;;;;;;;;19.80;90.60;;;;;;5013672;28;19913;-27
2022/10/09 11:44:14;;;;;;;;;;;19.80;90.60;;;;;;5013222;28;20406;-26
2022/10/09 11:47:18;;;;;;;;;;;19.80;90.70;;;;;;5012034;28;20294;-25
2022/10/09 11:49:57;;;;;;;;;;;19.80;90.70;;;;;;4991370;28;19906;-26
2022/10/09 11:52:28;;;;;;;;;;;19.80;90.60;;;;;;4991203;28;20382;-25
2022/10/09 11:54:54;;;;;;;;;;;19.80;90.60;;;;;;5004131;28;19916;-25
2022/10/09 11:57:29;;;;;;;;;;;19.80;90.60;;;;;;5013309;28;19909;-27
2022/10/09 12:00:06;;;;;;;;;;;19.80;90.60;;;;;;5013042;28;19912;-26
2022/10/09 12:02:31;;;;;;;;;;;19.80;90.90;;;;;;5012802;28;19905;-25
2022/10/09 12:04:57;;;;;;;;;;;19.80;90.60;;;;;;5012975;28;19959;-26
2022/10/09 12:07:25;;;;;;;;;;;19.80;90.60;;;;;;5013112;28;19955;-26
2022/10/09 12:09:55;;;;;;;;;;;19.80;90.70;;;;;;5013114;28;20286;-26
2022/10/09 12:12:21;;;;;;;;;;;19.80;90.70;;;;;;5012716;28;19927;-27
2022/10/09 12:14:48;;;;;;;;;;;19.70;90.70;;;;;;5012349;28;19944;-26
2022/10/09 12:17:15;;;;;;;;;;;19.80;90.80;;;;;;5012183;28;20441;-25
2022/10/09 12:19:42;;;;;;;;;;;19.70;90.70;;;;;;5011799;28;20374;-26
2022/10/09 12:22:10;;;;;;;;;;;19.80;90.80;;;;;;5011912;28;19944;-25
2022/10/09 12:24:40;;;;;;;;;;;19.70;90.70;;;;;;5011649;28;19956;-25
2022/10/09 12:27:06;;;;;;;;;;;19.70;90.70;;;;;;5011823;28;19913;-25
2022/10/09 12:29:34;;;;;;;;;;;19.70;86.00;;;;;;5011819;28;19905;-26
2022/10/09 12:32:05;;;;;;;;;;;19.50;84.50;;;;;;5011795;28;19913;-26
2022/10/09 12:34:33;;;;;;;;;;;19.40;85.50;;;;;;5011900;28;19988;-26
2022/10/09 12:37:18;;;;;;;;;;;19.40;86.40;;;;;;5011932;28;19912;-26
2022/10/09 12:39:44;;;;;;;;;;;19.40;87.00;;;;;;5011801;28;19905;-26
2022/10/09 12:42:21;;;;;;;;;;;19.40;87.50;;;;;;5011666;28;19909;-25
2022/10/09 12:44:47;;;;;;;;;;;19.50;87.90;;;;;;5011661;28;20359;-26
2022/10/09 12:47:16;;;;;;;;;;;19.50;88.20;;;;;;5011919;28;20020;-25
2022/10/09 12:49:41;;;;;;;;;;;19.50;88.50;;;;;;5011655;28;20398;-25
2022/10/09 12:52:15;;;;;;;;;;;19.60;88.70;;;;;;5012403;28;19977;-26
2022/10/09 12:54:41;;;;;;;;;;;19.50;88.80;;;;;;5011859;28;19967;-26
2022/10/09 12:57:12;;;;;;;;;;;19.60;89.10;;;;;;5011802;28;19964;-27
2022/10/09 12:59:38;;;;;;;;;;;19.60;90.00;;;;;;5011848;28;19906;-25
2022/10/09 13:02:08;;;;;;;;;;;19.60;89.40;;;;;;5011642;28;19905;-25
2022/10/09 13:04:34;;;;;;;;;;;19.60;89.40;;;;;;5011347;28;19909;-27
2022/10/09 13:07:13;;;;;;;;;;;19.60;89.50;;;;;;5011778;28;19936;-26
2022/10/09 13:09:39;;;;;;;;;;;19.60;89.60;;;;;;5011580;28;20282;-25
2022/10/09 13:12:14;;;;;;;;;;;19.70;89.70;;;;;;5011441;28;20008;-26
2022/10/09 13:14:55;;;;;;;;;;;19.70;89.70;;;;;;4973682;28;1086876;-26
2022/10/09 13:17:23;;;;;;;;;;;19.70;89.70;;;;;;5013063;28;19905;-25
2022/10/09 13:19:53;;;;;;;;;;;19.70;89.80;;;;;;5012637;28;19909;-25
2022/10/09 13:22:22;;;;;;;;;;;19.70;89.80;;;;;;5012311;28;19916;-25
2022/10/09 13:24:55;;;;;;;;;;;19.70;89.80;;;;;;5012006;28;19909;-25
2022/10/09 13:27:25;;;;;;;;;;;19.70;89.90;;;;;;5012445;28;19959;-25
2022/10/09 13:29:51;;;;;;;;;;;19.70;90.00;;;;;;5013201;28;19912;-25
2022/10/09 13:32:17;;;;;;;;;;;19.80;90.00;;;;;;5016338;28;19905;-26
2022/10/09 13:34:44;;;;;;;;;;;19.80;90.00;;;;;;5016233;28;20358;-25
2022/10/09 13:37:11;;;;;;;;;;;19.80;90.00;;;;;;5016074;28;20383;-25
2022/10/09 13:39:37;;;;;;;;;;;19.80;90.00;;;;;;5015927;28;19914;-25
2022/10/09 13:42:03;;;;;;;;;;;19.80;90.00;;;;;;5016019;28;19909;-26
2022/10/09 13:44:28;;;;;;;;;;;19.80;90.10;;;;;;5015922;28;19905;-27
2022/10/09 13:46:54;;;;;;;;;;;19.80;90.10;;;;;;5015776;28;19920;-25
2022/10/09 13:49:20;;;;;;;;;;;19.70;90.10;;;;;;5015992;28;19914;-25
2022/10/09 13:51:45;;;;;;;;;;;19.70;90.00;;;;;;5015830;28;19913;-25
2022/10/09 13:54:11;;;;;;;;;;;19.70;90.10;;;;;;5015570;28;19912;-26
2022/10/09 13:56:36;;;;;;;;;;;19.70;90.20;;;;;;5015701;28;19905;-25
2022/10/09 13:59:02;;;;;;;;;;;19.70;90.20;;;;;;5015920;28;19956;-23
2022/10/09 14:01:27;;;;;;;;;;;19.60;90.20;;;;;;5016005;28;19909;-25
2022/10/09 14:03:53;;;;;;;;;;;19.60;90.20;;;;;;5015568;28;20339;-27
2022/10/09 14:06:21;;;;;;;;;;;19.70;90.30;;;;;;5015406;28;20002;-25
2022/10/09 14:08:46;;;;;;;;;;;19.70;90.30;;;;;;5016165;28;19905;-26
2022/10/09 14:11:12;;;;;;;;;;;19.60;90.30;;;;;;5015477;28;19905;-25
2022/10/09 14:13:37;;;;;;;;;;;19.70;90.30;;;;;;5015151;28;20271;-25
2022/10/09 14:16:04;;;;;;;;;;;19.70;90.30;;;;;;5015592;28;20358;-25
2022/10/09 14:18:30;;;;;;;;;;;19.70;90.30;;;;;;5015483;28;19916;-25
2022/10/09 14:20:55;;;;;;;;;;;19.70;90.40;;;;;;5015401;28;19909;-25